Lynden Pindling International Airport
MYNN : now visible

Aeroporto :











RITROVATECI SU...

 
LOGIN :

Iscrizione | Disclaimer

   EN    FR    IT 

 









Sommario :    VFR   VFR Marginale   IFR   IFR Intensivo   IFR Molto Intensivo
Visibilità : 
Base nubi : 
>= 8 km
>= 3000ft
5 / 8 km
1000 / 3000 ft
1500m / 5 km
500 / 1000 ft
800 / 1500m
200 / 500 ft
< 800m
< 200 ft
Simboli :   Temporali  Nebbia  Neve Forte  Precipitazioni Forti  Vento > 20 kt






- Altitudine del aeroporto : 16 ft
- Codice IATA : NAS


MYNN - Lynden Pindling International

ULTIMO METAR :
  • 251000Z 11006KT 9999 SCT025 BKN250 27/23 A3005

METARs OBSOLETI :
  • 250900Z 11007KT 9999 SCT025 SCT250 27/23 A3005

TAF MYNN
Valido dal 25 a 06 ore il 26 a 06 ore UTC


250430Z 2506/2606 10007G17KT 9000 SHRA FEW015CB SCT030
FM251200 10012KT 9999 SCT020
PROB40
TEMPO 2518/2600 8000 SHRA FEW015CB BKN018
FIR MYNA / America del Nord



MetMap, La meteo Aeronautica in un colpo d'occhio ! - Copyright ORBIFLY Dicembre 2007 - Disclaimer

ORBIFLY MET'MAP TEAM :

Programmazione e sviluppo : Alexandra Zaïnal
Concezione : Baudouin d'Aumeries
Aiuto per la programmazione : Marc-Olivier Méhu
Supporto tecnico e logistico : Manuel Goepfert
Aiuto per la traduzione : Arnaldo La Scala

Contatto : metmap@orbifly.com




FONTI E CREDITI :

   NOAA       Earth
Advisory